Airfield :
LOGIN :

Register | Disclaimer

   EN    FR    IT 

 










Legend :    VFR   Marginal VFR   IFR   Intensive IFR   Very Intensive IFR
Visi :
Ceiling :
>= 8 km
>= 3000ft
5 to 8 km
1000 to 3000 ft
1500m to 5 km
500 to 1000 ft
800 to 1500m
200 to 500 ft
< 800m
< 200 ft
Symbols :   Thunderstorms  Fog  Heavy snow  Heavy precipitations  Wind > 20 kt
SIGMETs :     Misc.  Thunderstorms  Icing  Turbulence  Mountain Waves  Volcanic Ashes






- Airport Elevation : 313 ft
- IATA code : LEH


LFOH - Le Havre Octeville

CURRENT METAR :
  • 270800Z AUTO 22016KT 5000 -RADZ BR OVC004 08/07 Q0990 BECMG 33020G35KT BKN016

EXPIRED METARs :
  • 270730Z AUTO 20015KT 7000 BKN003 OVC007 07/06 Q0990 TEMPO 4000 RA BECMG 33020G35KT BKN016
  • 270700Z AUTO 17011KT 6000 -RA BKN006/// BKN014/// OVC021/// ///TCU 05/05 Q0991 TEMPO 22020G30KT 4000 RA OVC007
  • 270630Z AUTO 16014KT 5000 -RA BR BKN009/// BKN013/// OVC027/// ///TCU 04/04 Q0992 TEMPO 22020G30KT RA OVC007
  • 270600Z AUTO 15016KT 120V180 5000 -RA BR BKN010/// BKN016/// OVC023/// ///TCU 04/03 Q0993
  • 270530Z AUTO 15017KT 9000 -RA BKN010/// OVC015/// ///CB 04/03 Q0994
  • 270500Z AUTO 16016KT 9999 -RA OVC009/// ///CB 04/03 Q0996

TAF TAF LFOH
Valid from the 27 at 06:00 until the 28 at 06:00 UTC


270500Z 2706/2806 19015G25KT 6000 RA OVC012
TEMPO 2706/2709 22020G30KT 4000 RA OVC007
BECMG 2709/2711 33020G35KT NSW BKN016
BECMG 2716/2718 32015G25KT
BECMG 2718/2720 29008KT
ATIS : +33 2 35 54 64 93



MET'MAP, your aeronautical weather chart ! - Copyright ORBIFLY December 2007 - Disclaimer

ORBIFLY MET'MAP TEAM :

Programming & Development : Alexandra Zaïnal
Concept & original design : Baudouin d'Aumeries
Assistance for programming : Marc-Olivier Méhu
Technical & hardware support : Manuel Goepfert

Contact : metmap@orbifly.com




SOURCES & CREDITS :

   NOAA